sensor_id;sensor_type;location;lat;lon;timestamp;temperature;humidity
14192;DHT22;7177;48.572;7.838;2024-03-02T00:00:14;4.70;99.90
14192;DHT22;7177;48.572;7.838;2024-03-02T00:02:43;4.70;99.90
14192;DHT22;7177;48.572;7.838;2024-03-02T00:05:17;4.60;99.90
14192;DHT22;7177;48.572;7.838;2024-03-02T00:07:44;4.60;99.90
14192;DHT22;7177;48.572;7.838;2024-03-02T00:10:11;4.50;99.90
14192;DHT22;7177;48.572;7.838;2024-03-02T00:12:40;4.50;99.90
14192;DHT22;7177;48.572;7.838;2024-03-02T00:15:42;4.40;99.90
14192;DHT22;7177;48.572;7.838;2024-03-02T00:18:20;4.40;99.90
14192;DHT22;7177;48.572;7.838;2024-03-02T00:20:45;4.40;99.90
14192;DHT22;7177;48.572;7.838;2024-03-02T00:23:15;4.40;99.90
14192;DHT22;7177;48.572;7.838;2024-03-02T00:25:48;4.40;99.90
14192;DHT22;7177;48.572;7.838;2024-03-02T00:28:20;4.30;99.90
14192;DHT22;7177;48.572;7.838;2024-03-02T00:33:35;4.30;99.90
14192;DHT22;7177;48.572;7.838;2024-03-02T00:36:05;4.30;99.90
14192;DHT22;7177;48.572;7.838;2024-03-02T00:38:32;4.30;99.90
14192;DHT22;7177;48.572;7.838;2024-03-02T00:41:05;4.30;99.90
14192;DHT22;7177;48.572;7.838;2024-03-02T00:43:43;4.30;99.90
14192;DHT22;7177;48.572;7.838;2024-03-02T00:46:29;4.20;99.90
14192;DHT22;7177;48.572;7.838;2024-03-02T00:49:00;4.20;99.90
14192;DHT22;7177;48.572;7.838;2024-03-02T00:51:28;4.20;99.90
14192;DHT22;7177;48.572;7.838;2024-03-02T00:53:55;4.10;99.90
14192;DHT22;7177;48.572;7.838;2024-03-02T00:56:23;4.10;99.90
14192;DHT22;7177;48.572;7.838;2024-03-02T00:58:49;4.10;99.90
14192;DHT22;7177;48.572;7.838;2024-03-02T01:01:15;4.10;99.90
14192;DHT22;7177;48.572;7.838;2024-03-02T01:03:42;4.10;99.90
14192;DHT22;7177;48.572;7.838;2024-03-02T01:06:07;4.10;99.90
14192;DHT22;7177;48.572;7.838;2024-03-02T01:08:36;4.20;99.90
14192;DHT22;7177;48.572;7.838;2024-03-02T01:11:02;4.20;99.90
14192;DHT22;7177;48.572;7.838;2024-03-02T01:13:29;4.10;99.90
14192;DHT22;7177;48.572;7.838;2024-03-02T01:15:55;4.10;99.90
14192;DHT22;7177;48.572;7.838;2024-03-02T01:18:20;4.10;99.90
14192;DHT22;7177;48.572;7.838;2024-03-02T01:20:47;4.00;99.90
14192;DHT22;7177;48.572;7.838;2024-03-02T01:23:13;4.00;99.90
14192;DHT22;7177;48.572;7.838;2024-03-02T01:25:38;4.00;99.90
14192;DHT22;7177;48.572;7.838;2024-03-02T01:28:04;3.90;99.90
14192;DHT22;7177;48.572;7.838;2024-03-02T01:30:30;3.90;99.90
14192;DHT22;7177;48.572;7.838;2024-03-02T01:32:56;3.80;99.90
14192;DHT22;7177;48.572;7.838;2024-03-02T01:35:21;3.70;99.90
14192;DHT22;7177;48.572;7.838;2024-03-02T01:37:47;3.70;99.90
14192;DHT22;7177;48.572;7.838;2024-03-02T01:40:12;3.60;99.90
14192;DHT22;7177;48.572;7.838;2024-03-02T01:42:38;3.60;99.90
14192;DHT22;7177;48.572;7.838;2024-03-02T01:45:10;3.60;99.90
14192;DHT22;7177;48.572;7.838;2024-03-02T01:47:35;3.70;99.90
14192;DHT22;7177;48.572;7.838;2024-03-02T01:50:01;3.70;99.90
14192;DHT22;7177;48.572;7.838;2024-03-02T01:52:27;3.70;99.90
14192;DHT22;7177;48.572;7.838;2024-03-02T01:54:53;3.70;99.90
14192;DHT22;7177;48.572;7.838;2024-03-02T01:57:19;3.60;99.90
14192;DHT22;7177;48.572;7.838;2024-03-02T01:59:45;3.60;99.90
14192;DHT22;7177;48.572;7.838;2024-03-02T02:02:13;3.60;99.90
14192;DHT22;7177;48.572;7.838;2024-03-02T02:04:38;3.60;99.90
14192;DHT22;7177;48.572;7.838;2024-03-02T02:07:04;3.60;99.90
14192;DHT22;7177;48.572;7.838;2024-03-02T02:09:30;3.60;99.90
14192;DHT22;7177;48.572;7.838;2024-03-02T02:11:55;3.70;99.90
14192;DHT22;7177;48.572;7.838;2024-03-02T02:14:21;3.70;99.90
14192;DHT22;7177;48.572;7.838;2024-03-02T02:16:46;3.70;99.90
14192;DHT22;7177;48.572;7.838;2024-03-02T02:19:12;3.70;99.90
14192;DHT22;7177;48.572;7.838;2024-03-02T02:21:37;3.70;99.90
14192;DHT22;7177;48.572;7.838;2024-03-02T02:24:03;3.80;99.90
14192;DHT22;7177;48.572;7.838;2024-03-02T02:26:29;3.80;99.90
14192;DHT22;7177;48.572;7.838;2024-03-02T02:28:54;3.80;99.90
14192;DHT22;7177;48.572;7.838;2024-03-02T02:31:20;3.80;99.90
14192;DHT22;7177;48.572;7.838;2024-03-02T02:33:46;3.80;99.90
14192;DHT22;7177;48.572;7.838;2024-03-02T02:36:11;3.80;99.90
14192;DHT22;7177;48.572;7.838;2024-03-02T02:38:46;3.80;99.90
14192;DHT22;7177;48.572;7.838;2024-03-02T02:41:13;3.70;99.90
14192;DHT22;7177;48.572;7.838;2024-03-02T02:43:38;3.80;99.90
14192;DHT22;7177;48.572;7.838;2024-03-02T02:46:05;3.60;99.90
14192;DHT22;7177;48.572;7.838;2024-03-02T02:48:30;3.60;99.90
14192;DHT22;7177;48.572;7.838;2024-03-02T02:50:56;3.40;99.90
14192;DHT22;7177;48.572;7.838;2024-03-02T02:53:21;3.40;99.90
14192;DHT22;7177;48.572;7.838;2024-03-02T02:55:47;3.30;99.90
14192;DHT22;7177;48.572;7.838;2024-03-02T02:58:12;3.30;99.90
14192;DHT22;7177;48.572;7.838;2024-03-02T03:00:38;3.30;99.90
14192;DHT22;7177;48.572;7.838;2024-03-02T03:03:04;3.20;99.90
14192;DHT22;7177;48.572;7.838;2024-03-02T03:05:30;3.20;99.90
14192;DHT22;7177;48.572;7.838;2024-03-02T03:07:55;3.20;99.90
14192;DHT22;7177;48.572;7.838;2024-03-02T03:10:20;3.10;99.90
14192;DHT22;7177;48.572;7.838;2024-03-02T03:12:48;3.10;99.90
14192;DHT22;7177;48.572;7.838;2024-03-02T03:15:14;3.10;99.90
14192;DHT22;7177;48.572;7.838;2024-03-02T03:17:41;3.00;99.90
14192;DHT22;7177;48.572;7.838;2024-03-02T03:20:07;3.00;99.90
14192;DHT22;7177;48.572;7.838;2024-03-02T03:22:37;3.00;99.90
14192;DHT22;7177;48.572;7.838;2024-03-02T03:25:03;3.00;99.90
14192;DHT22;7177;48.572;7.838;2024-03-02T03:27:29;3.00;99.90
14192;DHT22;7177;48.572;7.838;2024-03-02T03:29:54;2.90;99.90
14192;DHT22;7177;48.572;7.838;2024-03-02T03:32:20;2.90;99.90
14192;DHT22;7177;48.572;7.838;2024-03-02T03:34:45;2.90;99.90
14192;DHT22;7177;48.572;7.838;2024-03-02T03:37:13;2.90;99.90
14192;DHT22;7177;48.572;7.838;2024-03-02T03:39:38;2.90;99.90
14192;DHT22;7177;48.572;7.838;2024-03-02T03:42:04;2.80;99.90
14192;DHT22;7177;48.572;7.838;2024-03-02T03:44:30;2.80;99.90
14192;DHT22;7177;48.572;7.838;2024-03-02T03:46:55;2.80;99.90
14192;DHT22;7177;48.572;7.838;2024-03-02T03:49:21;2.80;99.90
14192;DHT22;7177;48.572;7.838;2024-03-02T03:51:46;2.80;99.90
14192;DHT22;7177;48.572;7.838;2024-03-02T03:54:12;2.90;99.90
14192;DHT22;7177;48.572;7.838;2024-03-02T03:56:37;2.90;99.90
14192;DHT22;7177;48.572;7.838;2024-03-02T03:59:03;3.00;99.90
14192;DHT22;7177;48.572;7.838;2024-03-02T04:01:30;3.00;99.90
14192;DHT22;7177;48.572;7.838;2024-03-02T04:03:55;3.00;99.90
14192;DHT22;7177;48.572;7.838;2024-03-02T04:06:21;3.00;99.90
14192;DHT22;7177;48.572;7.838;2024-03-02T04:08:46;3.00;99.90
14192;DHT22;7177;48.572;7.838;2024-03-02T04:11:12;3.00;99.90
14192;DHT22;7177;48.572;7.838;2024-03-02T04:13:37;2.90;99.90
14192;DHT22;7177;48.572;7.838;2024-03-02T04:16:03;2.90;99.90
14192;DHT22;7177;48.572;7.838;2024-03-02T04:18:30;2.90;99.90
14192;DHT22;7177;48.572;7.838;2024-03-02T04:20:56;2.90;99.90
14192;DHT22;7177;48.572;7.838;2024-03-02T04:23:23;2.90;99.90
14192;DHT22;7177;48.572;7.838;2024-03-02T04:25:48;2.90;99.90
14192;DHT22;7177;48.572;7.838;2024-03-02T04:28:14;2.90;99.90
14192;DHT22;7177;48.572;7.838;2024-03-02T04:30:39;2.90;99.90
14192;DHT22;7177;48.572;7.838;2024-03-02T04:33:05;3.00;99.90
14192;DHT22;7177;48.572;7.838;2024-03-02T04:35:32;3.00;99.90
14192;DHT22;7177;48.572;7.838;2024-03-02T04:37:58;3.10;99.90
14192;DHT22;7177;48.572;7.838;2024-03-02T04:40:23;3.10;99.90
14192;DHT22;7177;48.572;7.838;2024-03-02T04:42:49;3.10;99.90
14192;DHT22;7177;48.572;7.838;2024-03-02T04:45:14;3.10;99.90
14192;DHT22;7177;48.572;7.838;2024-03-02T04:47:40;3.10;99.90
14192;DHT22;7177;48.572;7.838;2024-03-02T04:50:06;3.10;99.90
14192;DHT22;7177;48.572;7.838;2024-03-02T04:52:33;3.10;99.90
14192;DHT22;7177;48.572;7.838;2024-03-02T04:54:59;3.10;99.90
14192;DHT22;7177;48.572;7.838;2024-03-02T04:57:43;3.00;99.90
14192;DHT22;7177;48.572;7.838;2024-03-02T05:00:10;2.90;99.90
14192;DHT22;7177;48.572;7.838;2024-03-02T05:02:35;2.90;99.90
14192;DHT22;7177;48.572;7.838;2024-03-02T05:05:01;2.90;99.90
14192;DHT22;7177;48.572;7.838;2024-03-02T05:07:28;2.80;99.90
14192;DHT22;7177;48.572;7.838;2024-03-02T05:09:53;2.80;99.90
14192;DHT22;7177;48.572;7.838;2024-03-02T05:12:19;2.70;99.90
14192;DHT22;7177;48.572;7.838;2024-03-02T05:15:04;2.70;99.90
14192;DHT22;7177;48.572;7.838;2024-03-02T05:17:29;2.60;99.90
14192;DHT22;7177;48.572;7.838;2024-03-02T05:19:55;2.60;99.90
14192;DHT22;7177;48.572;7.838;2024-03-02T05:22:20;2.50;99.90
14192;DHT22;7177;48.572;7.838;2024-03-02T05:24:46;2.50;99.90
14192;DHT22;7177;48.572;7.838;2024-03-02T05:27:11;2.50;99.90
14192;DHT22;7177;48.572;7.838;2024-03-02T05:29:37;2.30;99.90
14192;DHT22;7177;48.572;7.838;2024-03-02T05:32:02;2.30;99.90
14192;DHT22;7177;48.572;7.838;2024-03-02T05:34:28;2.30;99.90
14192;DHT22;7177;48.572;7.838;2024-03-02T05:36:54;2.40;99.90
14192;DHT22;7177;48.572;7.838;2024-03-02T05:39:20;2.50;99.90
14192;DHT22;7177;48.572;7.838;2024-03-02T05:41:45;2.50;99.90
14192;DHT22;7177;48.572;7.838;2024-03-02T05:44:11;2.60;99.90
14192;DHT22;7177;48.572;7.838;2024-03-02T05:46:37;2.60;99.90
14192;DHT22;7177;48.572;7.838;2024-03-02T05:49:03;2.60;99.90
14192;DHT22;7177;48.572;7.838;2024-03-02T05:53:55;2.50;99.90
14192;DHT22;7177;48.572;7.838;2024-03-02T05:56:20;2.50;99.90
14192;DHT22;7177;48.572;7.838;2024-03-02T05:58:46;2.50;99.90
14192;DHT22;7177;48.572;7.838;2024-03-02T06:01:34;2.50;99.90
14192;DHT22;7177;48.572;7.838;2024-03-02T06:03:59;2.50;99.90
14192;DHT22;7177;48.572;7.838;2024-03-02T06:06:25;2.60;99.90
14192;DHT22;7177;48.572;7.838;2024-03-02T06:08:51;2.70;99.90
14192;DHT22;7177;48.572;7.838;2024-03-02T06:11:17;2.80;99.90
14192;DHT22;7177;48.572;7.838;2024-03-02T06:13:42;2.80;99.90
14192;DHT22;7177;48.572;7.838;2024-03-02T06:16:08;2.90;99.90
14192;DHT22;7177;48.572;7.838;2024-03-02T06:18:34;3.00;99.90
14192;DHT22;7177;48.572;7.838;2024-03-02T06:20:59;3.00;99.90
14192;DHT22;7177;48.572;7.838;2024-03-02T06:23:26;3.10;99.90
14192;DHT22;7177;48.572;7.838;2024-03-02T06:25:52;3.10;99.90
14192;DHT22;7177;48.572;7.838;2024-03-02T06:30:43;3.30;99.90
14192;DHT22;7177;48.572;7.838;2024-03-02T06:33:10;3.40;99.90
14192;DHT22;7177;48.572;7.838;2024-03-02T06:35:36;3.50;99.90
14192;DHT22;7177;48.572;7.838;2024-03-02T06:38:02;3.60;99.90
14192;DHT22;7177;48.572;7.838;2024-03-02T06:40:27;3.70;99.90
14192;DHT22;7177;48.572;7.838;2024-03-02T06:42:53;3.80;99.90
14192;DHT22;7177;48.572;7.838;2024-03-02T06:45:19;3.90;99.90
14192;DHT22;7177;48.572;7.838;2024-03-02T06:47:44;4.00;99.90
14192;DHT22;7177;48.572;7.838;2024-03-02T06:50:10;4.30;99.90
14192;DHT22;7177;48.572;7.838;2024-03-02T06:52:35;4.70;99.90
14192;DHT22;7177;48.572;7.838;2024-03-02T06:55:01;4.90;99.90
14192;DHT22;7177;48.572;7.838;2024-03-02T06:57:27;5.30;99.90
14192;DHT22;7177;48.572;7.838;2024-03-02T06:59:53;5.50;99.90
14192;DHT22;7177;48.572;7.838;2024-03-02T07:02:20;5.40;99.90
14192;DHT22;7177;48.572;7.838;2024-03-02T07:04:46;5.30;99.90
14192;DHT22;7177;48.572;7.838;2024-03-02T07:07:12;5.10;99.90
14192;DHT22;7177;48.572;7.838;2024-03-02T07:09:38;5.10;99.90
14192;DHT22;7177;48.572;7.838;2024-03-02T07:12:03;5.10;99.90
14192;DHT22;7177;48.572;7.838;2024-03-02T07:14:29;5.20;99.90
14192;DHT22;7177;48.572;7.838;2024-03-02T07:17:13;5.20;99.90
14192;DHT22;7177;48.572;7.838;2024-03-02T07:19:39;5.30;99.90
14192;DHT22;7177;48.572;7.838;2024-03-02T07:22:08;5.60;99.90
14192;DHT22;7177;48.572;7.838;2024-03-02T07:24:40;5.70;99.90
14192;DHT22;7177;48.572;7.838;2024-03-02T07:27:06;5.80;99.90
14192;DHT22;7177;48.572;7.838;2024-03-02T07:29:32;5.80;99.90
14192;DHT22;7177;48.572;7.838;2024-03-02T07:31:57;5.70;99.90
14192;DHT22;7177;48.572;7.838;2024-03-02T07:34:23;5.90;99.90
14192;DHT22;7177;48.572;7.838;2024-03-02T07:36:48;6.00;99.90
14192;DHT22;7177;48.572;7.838;2024-03-02T07:39:14;6.20;99.90
14192;DHT22;7177;48.572;7.838;2024-03-02T07:41:40;6.40;99.90
14192;DHT22;7177;48.572;7.838;2024-03-02T07:44:05;6.40;99.90
14192;DHT22;7177;48.572;7.838;2024-03-02T07:46:31;6.50;99.90
14192;DHT22;7177;48.572;7.838;2024-03-02T07:48:56;6.40;99.90
14192;DHT22;7177;48.572;7.838;2024-03-02T07:51:22;6.50;99.90
14192;DHT22;7177;48.572;7.838;2024-03-02T07:53:47;6.60;99.90
14192;DHT22;7177;48.572;7.838;2024-03-02T07:56:13;7.40;99.90
14192;DHT22;7177;48.572;7.838;2024-03-02T07:58:38;7.80;99.90
14192;DHT22;7177;48.572;7.838;2024-03-02T08:01:04;7.80;99.90
14192;DHT22;7177;48.572;7.838;2024-03-02T08:03:29;8.00;99.90
14192;DHT22;7177;48.572;7.838;2024-03-02T08:05:55;8.20;99.90
14192;DHT22;7177;48.572;7.838;2024-03-02T08:08:20;8.50;99.90
14192;DHT22;7177;48.572;7.838;2024-03-02T08:10:46;8.70;99.90
14192;DHT22;7177;48.572;7.838;2024-03-02T08:15:37;8.90;99.90
14192;DHT22;7177;48.572;7.838;2024-03-02T08:18:03;9.20;99.90
14192;DHT22;7177;48.572;7.838;2024-03-02T08:20:29;9.50;99.90
14192;DHT22;7177;48.572;7.838;2024-03-02T08:22:54;9.80;99.90
14192;DHT22;7177;48.572;7.838;2024-03-02T08:25:20;9.80;99.90
14192;DHT22;7177;48.572;7.838;2024-03-02T08:27:46;10.00;99.90
14192;DHT22;7177;48.572;7.838;2024-03-02T08:30:12;10.40;99.90
14192;DHT22;7177;48.572;7.838;2024-03-02T08:32:38;11.00;99.90
14192;DHT22;7177;48.572;7.838;2024-03-02T08:35:04;11.00;99.90
14192;DHT22;7177;48.572;7.838;2024-03-02T08:37:30;11.30;99.90
14192;DHT22;7177;48.572;7.838;2024-03-02T08:39:56;11.70;99.90
14192;DHT22;7177;48.572;7.838;2024-03-02T08:42:22;12.00;99.90
14192;DHT22;7177;48.572;7.838;2024-03-02T08:44:47;12.10;99.90
14192;DHT22;7177;48.572;7.838;2024-03-02T08:47:13;12.10;99.90
14192;DHT22;7177;48.572;7.838;2024-03-02T08:49:39;11.70;99.90
14192;DHT22;7177;48.572;7.838;2024-03-02T08:52:04;11.90;99.90
14192;DHT22;7177;48.572;7.838;2024-03-02T08:54:30;12.30;99.90
14192;DHT22;7177;48.572;7.838;2024-03-02T08:56:56;12.30;99.90
14192;DHT22;7177;48.572;7.838;2024-03-02T08:59:22;12.40;99.90
14192;DHT22;7177;48.572;7.838;2024-03-02T09:01:47;12.70;99.90
14192;DHT22;7177;48.572;7.838;2024-03-02T09:04:13;13.10;99.90
14192;DHT22;7177;48.572;7.838;2024-03-02T09:06:38;13.30;99.90
14192;DHT22;7177;48.572;7.838;2024-03-02T09:09:04;13.60;99.90
14192;DHT22;7177;48.572;7.838;2024-03-02T09:11:30;13.40;99.90
14192;DHT22;7177;48.572;7.838;2024-03-02T09:13:55;13.80;99.90
14192;DHT22;7177;48.572;7.838;2024-03-02T09:16:22;14.10;99.90
14192;DHT22;7177;48.572;7.838;2024-03-02T09:18:47;14.10;99.90
14192;DHT22;7177;48.572;7.838;2024-03-02T09:21:13;14.20;99.90
14192;DHT22;7177;48.572;7.838;2024-03-02T09:23:38;14.40;99.90
14192;DHT22;7177;48.572;7.838;2024-03-02T09:26:05;14.30;99.90
14192;DHT22;7177;48.572;7.838;2024-03-02T09:28:31;14.30;99.90
14192;DHT22;7177;48.572;7.838;2024-03-02T09:30:56;14.30;99.90
14192;DHT22;7177;48.572;7.838;2024-03-02T09:33:22;14.50;99.90
14192;DHT22;7177;48.572;7.838;2024-03-02T09:35:47;14.90;99.90
14192;DHT22;7177;48.572;7.838;2024-03-02T09:38:14;15.40;99.90
14192;DHT22;7177;48.572;7.838;2024-03-02T09:40:41;15.90;99.90
14192;DHT22;7177;48.572;7.838;2024-03-02T09:43:07;16.20;99.90
14192;DHT22;7177;48.572;7.838;2024-03-02T09:45:33;16.30;99.90
14192;DHT22;7177;48.572;7.838;2024-03-02T09:47:59;16.30;99.90
14192;DHT22;7177;48.572;7.838;2024-03-02T09:50:25;16.60;99.90
14192;DHT22;7177;48.572;7.838;2024-03-02T09:52:51;17.20;99.90
14192;DHT22;7177;48.572;7.838;2024-03-02T09:55:18;17.50;99.90
14192;DHT22;7177;48.572;7.838;2024-03-02T09:57:45;17.40;99.90
14192;DHT22;7177;48.572;7.838;2024-03-02T10:00:11;17.30;99.90
14192;DHT22;7177;48.572;7.838;2024-03-02T10:02:43;17.30;99.90
14192;DHT22;7177;48.572;7.838;2024-03-02T10:05:09;17.30;99.90
14192;DHT22;7177;48.572;7.838;2024-03-02T10:07:35;17.50;99.90
14192;DHT22;7177;48.572;7.838;2024-03-02T10:10:13;17.80;99.60
14192;DHT22;7177;48.572;7.838;2024-03-02T10:12:38;17.80;99.70
14192;DHT22;7177;48.572;7.838;2024-03-02T10:15:04;17.70;99.90
14192;DHT22;7177;48.572;7.838;2024-03-02T10:17:31;18.00;98.70
14192;DHT22;7177;48.572;7.838;2024-03-02T10:19:57;18.40;96.60
14192;DHT22;7177;48.572;7.838;2024-03-02T10:22:23;18.40;96.30
14192;DHT22;7177;48.572;7.838;2024-03-02T10:24:49;18.40;96.60
14192;DHT22;7177;48.572;7.838;2024-03-02T10:27:22;18.50;96.20
14192;DHT22;7177;48.572;7.838;2024-03-02T10:29:48;18.70;95.70
14192;DHT22;7177;48.572;7.838;2024-03-02T10:32:15;18.80;96.00
14192;DHT22;7177;48.572;7.838;2024-03-02T10:34:42;19.00;95.20
14192;DHT22;7177;48.572;7.838;2024-03-02T10:37:08;18.90;94.70
14192;DHT22;7177;48.572;7.838;2024-03-02T10:39:37;19.00;95.00
14192;DHT22;7177;48.572;7.838;2024-03-02T10:42:05;19.10;94.80
14192;DHT22;7177;48.572;7.838;2024-03-02T10:44:32;19.20;93.90
14192;DHT22;7177;48.572;7.838;2024-03-02T10:47:03;19.50;94.00
14192;DHT22;7177;48.572;7.838;2024-03-02T10:49:30;19.80;93.80
14192;DHT22;7177;48.572;7.838;2024-03-02T10:51:57;20.30;93.30
14192;DHT22;7177;48.572;7.838;2024-03-02T10:54:22;20.70;91.50
14192;DHT22;7177;48.572;7.838;2024-03-02T10:56:52;21.00;90.20
14192;DHT22;7177;48.572;7.838;2024-03-02T10:59:37;21.20;91.10
14192;DHT22;7177;48.572;7.838;2024-03-02T11:02:11;21.80;88.70
14192;DHT22;7177;48.572;7.838;2024-03-02T11:04:38;22.10;86.30
14192;DHT22;7177;48.572;7.838;2024-03-02T11:07:10;22.20;84.20
14192;DHT22;7177;48.572;7.838;2024-03-02T11:09:56;22.00;82.70
14192;DHT22;7177;48.572;7.838;2024-03-02T11:12:29;22.30;84.20
14192;DHT22;7177;48.572;7.838;2024-03-02T11:14:58;23.10;81.80
14192;DHT22;7177;48.572;7.838;2024-03-02T11:17:24;23.40;75.60
14192;DHT22;7177;48.572;7.838;2024-03-02T11:19:50;23.10;75.20
14192;DHT22;7177;48.572;7.838;2024-03-02T11:22:17;22.60;73.90
14192;DHT22;7177;48.572;7.838;2024-03-02T11:24:50;22.10;75.40
14192;DHT22;7177;48.572;7.838;2024-03-02T11:35:27;19.80;77.30
14192;DHT22;7177;48.572;7.838;2024-03-02T11:37:56;19.50;78.60
14192;DHT22;7177;48.572;7.838;2024-03-02T11:40:28;19.50;78.40
14192;DHT22;7177;48.572;7.838;2024-03-02T11:42:54;19.30;79.90
14192;DHT22;7177;48.572;7.838;2024-03-02T11:45:23;19.70;78.10
14192;DHT22;7177;48.572;7.838;2024-03-02T11:47:57;20.20;77.80
14192;DHT22;7177;48.572;7.838;2024-03-02T11:50:29;20.50;78.30
14192;DHT22;7177;48.572;7.838;2024-03-02T11:52:56;20.70;77.50
14192;DHT22;7177;48.572;7.838;2024-03-02T11:55:23;20.70;75.50
14192;DHT22;7177;48.572;7.838;2024-03-02T11:57:52;20.50;77.40
14192;DHT22;7177;48.572;7.838;2024-03-02T12:00:21;20.30;74.50
14192;DHT22;7177;48.572;7.838;2024-03-02T12:02:59;20.40;76.70
14192;DHT22;7177;48.572;7.838;2024-03-02T12:05:25;20.60;77.10
14192;DHT22;7177;48.572;7.838;2024-03-02T12:07:59;20.30;75.20
14192;DHT22;7177;48.572;7.838;2024-03-02T12:10:25;19.30;79.20
14192;DHT22;7177;48.572;7.838;2024-03-02T12:12:58;18.70;81.20
14192;DHT22;7177;48.572;7.838;2024-03-02T12:15:29;18.00;81.00
14192;DHT22;7177;48.572;7.838;2024-03-02T12:17:56;17.40;84.40
14192;DHT22;7177;48.572;7.838;2024-03-02T12:20:24;17.10;84.30
14192;DHT22;7177;48.572;7.838;2024-03-02T12:22:51;16.90;88.60
14192;DHT22;7177;48.572;7.838;2024-03-02T12:25:18;17.10;87.70
14192;DHT22;7177;48.572;7.838;2024-03-02T12:27:45;17.60;86.80
14192;DHT22;7177;48.572;7.838;2024-03-02T12:30:11;18.00;85.60
14192;DHT22;7177;48.572;7.838;2024-03-02T12:32:37;18.60;84.10
14192;DHT22;7177;48.572;7.838;2024-03-02T12:35:05;19.00;81.00
14192;DHT22;7177;48.572;7.838;2024-03-02T12:37:31;19.10;79.10
14192;DHT22;7177;48.572;7.838;2024-03-02T12:39:56;19.30;79.10
14192;DHT22;7177;48.572;7.838;2024-03-02T12:42:23;19.30;77.90
14192;DHT22;7177;48.572;7.838;2024-03-02T12:44:49;19.40;78.60
14192;DHT22;7177;48.572;7.838;2024-03-02T12:47:14;19.90;78.20
14192;DHT22;7177;48.572;7.838;2024-03-02T12:49:40;20.20;78.50
14192;DHT22;7177;48.572;7.838;2024-03-02T12:52:06;20.50;76.00
14192;DHT22;7177;48.572;7.838;2024-03-02T12:54:32;20.60;76.20
14192;DHT22;7177;48.572;7.838;2024-03-02T12:56:58;20.30;76.70
14192;DHT22;7177;48.572;7.838;2024-03-02T12:59:24;20.40;76.70
14192;DHT22;7177;48.572;7.838;2024-03-02T13:01:55;20.40;74.60
14192;DHT22;7177;48.572;7.838;2024-03-02T13:04:24;20.60;74.40
14192;DHT22;7177;48.572;7.838;2024-03-02T13:06:51;20.90;74.00
14192;DHT22;7177;48.572;7.838;2024-03-02T13:09:17;21.30;72.30
14192;DHT22;7177;48.572;7.838;2024-03-02T13:11:43;21.70;71.30
14192;DHT22;7177;48.572;7.838;2024-03-02T13:14:10;22.00;72.40
14192;DHT22;7177;48.572;7.838;2024-03-02T13:16:39;21.70;70.40
14192;DHT22;7177;48.572;7.838;2024-03-02T13:19:08;21.30;70.90
14192;DHT22;7177;48.572;7.838;2024-03-02T13:21:33;21.20;72.30
14192;DHT22;7177;48.572;7.838;2024-03-02T13:23:59;21.10;71.00
14192;DHT22;7177;48.572;7.838;2024-03-02T13:26:25;20.80;73.40
14192;DHT22;7177;48.572;7.838;2024-03-02T13:28:51;20.50;73.40
14192;DHT22;7177;48.572;7.838;2024-03-02T13:31:16;20.90;71.50
14192;DHT22;7177;48.572;7.838;2024-03-02T13:33:42;21.20;72.50
14192;DHT22;7177;48.572;7.838;2024-03-02T13:36:08;21.60;71.80
14192;DHT22;7177;48.572;7.838;2024-03-02T13:38:33;21.90;67.50
14192;DHT22;7177;48.572;7.838;2024-03-02T13:40:59;21.40;70.20
14192;DHT22;7177;48.572;7.838;2024-03-02T13:43:26;21.30;67.60
14192;DHT22;7177;48.572;7.838;2024-03-02T13:45:52;21.20;68.50
14192;DHT22;7177;48.572;7.838;2024-03-02T13:48:19;21.20;67.20
14192;DHT22;7177;48.572;7.838;2024-03-02T13:50:44;21.30;67.90
14192;DHT22;7177;48.572;7.838;2024-03-02T13:53:10;21.70;68.20
14192;DHT22;7177;48.572;7.838;2024-03-02T13:55:37;21.70;68.10
14192;DHT22;7177;48.572;7.838;2024-03-02T13:58:03;21.40;66.70
14192;DHT22;7177;48.572;7.838;2024-03-02T14:00:29;21.10;69.90
14192;DHT22;7177;48.572;7.838;2024-03-02T14:02:55;21.10;68.50
14192;DHT22;7177;48.572;7.838;2024-03-02T14:05:21;20.50;67.50
14192;DHT22;7177;48.572;7.838;2024-03-02T14:07:46;20.20;70.50
14192;DHT22;7177;48.572;7.838;2024-03-02T14:10:12;20.20;69.00
14192;DHT22;7177;48.572;7.838;2024-03-02T14:12:37;20.20;68.90
14192;DHT22;7177;48.572;7.838;2024-03-02T14:15:03;19.90;70.20
14192;DHT22;7177;48.572;7.838;2024-03-02T14:17:29;20.00;71.70
14192;DHT22;7177;48.572;7.838;2024-03-02T14:19:57;19.90;70.10
14192;DHT22;7177;48.572;7.838;2024-03-02T14:22:24;19.50;71.80
14192;DHT22;7177;48.572;7.838;2024-03-02T14:24:49;19.30;72.10
14192;DHT22;7177;48.572;7.838;2024-03-02T14:27:15;19.00;71.90
14192;DHT22;7177;48.572;7.838;2024-03-02T14:29:42;18.80;73.40
14192;DHT22;7177;48.572;7.838;2024-03-02T14:32:08;18.80;73.60
14192;DHT22;7177;48.572;7.838;2024-03-02T14:34:34;18.90;75.80
14192;DHT22;7177;48.572;7.838;2024-03-02T14:37:00;19.10;74.20
14192;DHT22;7177;48.572;7.838;2024-03-02T14:39:26;19.20;73.50
14192;DHT22;7177;48.572;7.838;2024-03-02T14:41:51;19.10;74.10
14192;DHT22;7177;48.572;7.838;2024-03-02T14:44:17;18.70;73.90
14192;DHT22;7177;48.572;7.838;2024-03-02T14:46:43;18.50;75.60
14192;DHT22;7177;48.572;7.838;2024-03-02T14:49:09;18.10;75.80
14192;DHT22;7177;48.572;7.838;2024-03-02T14:51:36;18.00;77.10
14192;DHT22;7177;48.572;7.838;2024-03-02T14:54:01;17.90;78.30
14192;DHT22;7177;48.572;7.838;2024-03-02T14:56:28;17.70;76.40
14192;DHT22;7177;48.572;7.838;2024-03-02T14:58:54;17.40;77.00
14192;DHT22;7177;48.572;7.838;2024-03-02T15:01:19;17.30;78.50
14192;DHT22;7177;48.572;7.838;2024-03-02T15:03:48;17.30;80.70
14192;DHT22;7177;48.572;7.838;2024-03-02T15:06:14;17.30;80.50
14192;DHT22;7177;48.572;7.838;2024-03-02T15:08:40;17.20;79.20
14192;DHT22;7177;48.572;7.838;2024-03-02T15:11:07;17.30;80.50
14192;DHT22;7177;48.572;7.838;2024-03-02T15:13:32;17.30;81.80
14192;DHT22;7177;48.572;7.838;2024-03-02T15:15:59;17.20;80.20
14192;DHT22;7177;48.572;7.838;2024-03-02T15:18:25;17.20;81.60
14192;DHT22;7177;48.572;7.838;2024-03-02T15:20:50;17.30;83.40
14192;DHT22;7177;48.572;7.838;2024-03-02T15:23:16;17.30;82.50
14192;DHT22;7177;48.572;7.838;2024-03-02T15:25:41;17.30;82.20
14192;DHT22;7177;48.572;7.838;2024-03-02T15:28:07;17.40;81.50
14192;DHT22;7177;48.572;7.838;2024-03-02T15:30:32;17.30;80.40
14192;DHT22;7177;48.572;7.838;2024-03-02T15:32:58;17.30;80.70
14192;DHT22;7177;48.572;7.838;2024-03-02T15:35:23;17.30;81.80
14192;DHT22;7177;48.572;7.838;2024-03-02T15:37:49;17.40;82.80
14192;DHT22;7177;48.572;7.838;2024-03-02T15:40:14;17.50;82.90
14192;DHT22;7177;48.572;7.838;2024-03-02T15:42:40;17.50;83.60
14192;DHT22;7177;48.572;7.838;2024-03-02T15:45:06;17.60;83.10
14192;DHT22;7177;48.572;7.838;2024-03-02T15:47:32;17.60;83.50
14192;DHT22;7177;48.572;7.838;2024-03-02T15:49:58;17.60;84.10
14192;DHT22;7177;48.572;7.838;2024-03-02T15:52:24;17.60;84.50
14192;DHT22;7177;48.572;7.838;2024-03-02T15:54:50;17.50;82.60
14192;DHT22;7177;48.572;7.838;2024-03-02T15:57:16;17.40;83.50
14192;DHT22;7177;48.572;7.838;2024-03-02T15:59:42;17.30;84.70
14192;DHT22;7177;48.572;7.838;2024-03-02T16:02:08;17.10;85.20
14192;DHT22;7177;48.572;7.838;2024-03-02T16:04:34;17.00;86.70
14192;DHT22;7177;48.572;7.838;2024-03-02T16:06:59;17.00;88.30
14192;DHT22;7177;48.572;7.838;2024-03-02T16:09:25;17.00;88.70